sensor_id;sensor_type;location;lat;lon;timestamp;temperature;humidity
30467;DHT22;17258;52.560;13.046;2023-04-03T00:07:11;6.50;55.40
30467;DHT22;17258;52.560;13.046;2023-04-03T00:17:12;6.40;55.40
30467;DHT22;17258;52.560;13.046;2023-04-03T00:27:13;6.30;55.40
30467;DHT22;17258;52.560;13.046;2023-04-03T00:37:14;6.30;55.50
30467;DHT22;17258;52.560;13.046;2023-04-03T00:47:16;6.20;55.50
30467;DHT22;17258;52.560;13.046;2023-04-03T00:57:18;6.10;55.50
30467;DHT22;17258;52.560;13.046;2023-04-03T01:07:25;6.10;55.50
30467;DHT22;17258;52.560;13.046;2023-04-03T01:17:30;6.00;55.60
30467;DHT22;17258;52.560;13.046;2023-04-03T01:27:33;5.90;55.60
30467;DHT22;17258;52.560;13.046;2023-04-03T01:37:33;5.80;55.50
30467;DHT22;17258;52.560;13.046;2023-04-03T01:47:34;5.80;55.70
30467;DHT22;17258;52.560;13.046;2023-04-03T01:57:35;5.60;55.70
30467;DHT22;17258;52.560;13.046;2023-04-03T02:07:36;5.60;55.70
30467;DHT22;17258;52.560;13.046;2023-04-03T02:17:36;5.50;55.70
30467;DHT22;17258;52.560;13.046;2023-04-03T02:27:37;5.40;55.70
30467;DHT22;17258;52.560;13.046;2023-04-03T02:37:38;5.30;55.70
30467;DHT22;17258;52.560;13.046;2023-04-03T02:47:39;5.20;55.80
30467;DHT22;17258;52.560;13.046;2023-04-03T02:57:40;5.20;55.90
30467;DHT22;17258;52.560;13.046;2023-04-03T03:07:40;5.10;55.90
30467;DHT22;17258;52.560;13.046;2023-04-03T03:17:41;5.00;55.90
30467;DHT22;17258;52.560;13.046;2023-04-03T03:27:41;5.00;55.90
30467;DHT22;17258;52.560;13.046;2023-04-03T03:37:42;4.90;56.00
30467;DHT22;17258;52.560;13.046;2023-04-03T03:47:43;4.80;56.00
30467;DHT22;17258;52.560;13.046;2023-04-03T03:57:43;4.70;56.00
30467;DHT22;17258;52.560;13.046;2023-04-03T04:07:44;4.70;56.10
30467;DHT22;17258;52.560;13.046;2023-04-03T04:17:45;4.60;56.10
30467;DHT22;17258;52.560;13.046;2023-04-03T04:27:45;4.60;56.20
30467;DHT22;17258;52.560;13.046;2023-04-03T04:37:46;4.50;56.10
30467;DHT22;17258;52.560;13.046;2023-04-03T04:47:47;4.50;56.20
30467;DHT22;17258;52.560;13.046;2023-04-03T04:57:47;4.40;56.20
30467;DHT22;17258;52.560;13.046;2023-04-03T05:07:48;4.40;56.30
30467;DHT22;17258;52.560;13.046;2023-04-03T05:17:49;4.40;56.30
30467;DHT22;17258;52.560;13.046;2023-04-03T05:27:51;4.40;56.30
30467;DHT22;17258;52.560;13.046;2023-04-03T05:37:51;4.40;56.50
30467;DHT22;17258;52.560;13.046;2023-04-03T05:47:52;4.40;56.60
30467;DHT22;17258;52.560;13.046;2023-04-03T05:57:53;4.40;56.90
30467;DHT22;17258;52.560;13.046;2023-04-03T06:07:53;4.50;57.00
30467;DHT22;17258;52.560;13.046;2023-04-03T06:17:54;4.70;57.30
30467;DHT22;17258;52.560;13.046;2023-04-03T06:27:55;4.90;57.60
30467;DHT22;17258;52.560;13.046;2023-04-03T06:37:56;5.20;57.90
30467;DHT22;17258;52.560;13.046;2023-04-03T06:47:57;5.60;58.00
30467;DHT22;17258;52.560;13.046;2023-04-03T06:57:58;5.90;58.00
30467;DHT22;17258;52.560;13.046;2023-04-03T07:07:58;6.30;58.70
30467;DHT22;17258;52.560;13.046;2023-04-03T07:17:59;6.60;57.90
30467;DHT22;17258;52.560;13.046;2023-04-03T07:27:59;7.00;57.80
30467;DHT22;17258;52.560;13.046;2023-04-03T07:38:01;7.30;57.50
30467;DHT22;17258;52.560;13.046;2023-04-03T07:48:03;7.60;57.50
30467;DHT22;17258;52.560;13.046;2023-04-03T07:58:04;8.00;57.50
30467;DHT22;17258;52.560;13.046;2023-04-03T08:08:06;8.30;57.00
30467;DHT22;17258;52.560;13.046;2023-04-03T08:18:07;8.70;56.70
30467;DHT22;17258;52.560;13.046;2023-04-03T08:28:09;9.00;56.50
30467;DHT22;17258;52.560;13.046;2023-04-03T08:38:12;9.30;56.00
30467;DHT22;17258;52.560;13.046;2023-04-03T08:58:29;9.70;55.20
30467;DHT22;17258;52.560;13.046;2023-04-03T09:29:31;10.00;55.00
30467;DHT22;17258;52.560;13.046;2023-04-03T09:39:51;10.20;55.50
30467;DHT22;17258;52.560;13.046;2023-04-03T09:50:18;10.50;54.70
30467;DHT22;17258;52.560;13.046;2023-04-03T10:00:35;10.70;53.90
30467;DHT22;17258;52.560;13.046;2023-04-03T10:10:38;11.00;54.70
30467;DHT22;17258;52.560;13.046;2023-04-03T10:20:43;11.30;54.50
30467;DHT22;17258;52.560;13.046;2023-04-03T10:31:07;11.50;53.50
30467;DHT22;17258;52.560;13.046;2023-04-03T11:02:23;11.80;53.50
30467;DHT22;17258;52.560;13.046;2023-04-03T11:12:43;11.90;52.80
30467;DHT22;17258;52.560;13.046;2023-04-03T11:23:19;12.00;51.80
30467;DHT22;17258;52.560;13.046;2023-04-03T11:34:26;12.20;52.40
30467;DHT22;17258;52.560;13.046;2023-04-03T11:44:35;12.40;51.80
30467;DHT22;17258;52.560;13.046;2023-04-03T11:54:47;12.60;51.70
30467;DHT22;17258;52.560;13.046;2023-04-03T12:25:49;12.90;50.30
30467;DHT22;17258;52.560;13.046;2023-04-03T12:56:29;12.80;50.40
30467;DHT22;17258;52.560;13.046;2023-04-03T13:06:36;12.60;50.20
30467;DHT22;17258;52.560;13.046;2023-04-03T13:16:40;12.60;50.80
30467;DHT22;17258;52.560;13.046;2023-04-03T13:26:42;12.60;51.20
30467;DHT22;17258;52.560;13.046;2023-04-03T13:36:56;12.50;51.20
30467;DHT22;17258;52.560;13.046;2023-04-03T13:47:20;12.50;50.00
30467;DHT22;17258;52.560;13.046;2023-04-03T13:57:23;12.40;50.10
30467;DHT22;17258;52.560;13.046;2023-04-03T14:07:25;12.50;50.80
30467;DHT22;17258;52.560;13.046;2023-04-03T14:17:27;12.40;50.60
30467;DHT22;17258;52.560;13.046;2023-04-03T14:27:40;12.30;50.70
30467;DHT22;17258;52.560;13.046;2023-04-03T14:37:43;12.20;50.10
30467;DHT22;17258;52.560;13.046;2023-04-03T14:47:53;12.10;50.70
30467;DHT22;17258;52.560;13.046;2023-04-03T14:57:54;12.00;50.30
30467;DHT22;17258;52.560;13.046;2023-04-03T15:07:57;11.80;50.40
30467;DHT22;17258;52.560;13.046;2023-04-03T15:18:00;11.70;50.60
30467;DHT22;17258;52.560;13.046;2023-04-03T15:28:01;11.60;50.80
30467;DHT22;17258;52.560;13.046;2023-04-03T15:38:02;11.70;51.10
30467;DHT22;17258;52.560;13.046;2023-04-03T15:48:03;11.70;50.80
30467;DHT22;17258;52.560;13.046;2023-04-03T15:58:05;11.70;50.60
30467;DHT22;17258;52.560;13.046;2023-04-03T16:08:06;11.60;50.50
30467;DHT22;17258;52.560;13.046;2023-04-03T16:18:08;11.40;50.30
30467;DHT22;17258;52.560;13.046;2023-04-03T16:28:09;11.20;50.40
30467;DHT22;17258;52.560;13.046;2023-04-03T16:38:14;11.10;50.60
30467;DHT22;17258;52.560;13.046;2023-04-03T16:48:15;11.00;50.50
30467;DHT22;17258;52.560;13.046;2023-04-03T16:58:16;10.90;50.50
30467;DHT22;17258;52.560;13.046;2023-04-03T17:08:17;10.70;50.60
30467;DHT22;17258;52.560;13.046;2023-04-03T17:18:18;10.60;50.70
30467;DHT22;17258;52.560;13.046;2023-04-03T17:28:20;10.40;50.90
30467;DHT22;17258;52.560;13.046;2023-04-03T17:38:24;10.30;50.90
30467;DHT22;17258;52.560;13.046;2023-04-03T17:48:25;10.20;50.90
30467;DHT22;17258;52.560;13.046;2023-04-03T17:58:27;10.10;51.00
30467;DHT22;17258;52.560;13.046;2023-04-03T18:08:27;10.00;51.10
30467;DHT22;17258;52.560;13.046;2023-04-03T18:18:29;9.90;51.10
30467;DHT22;17258;52.560;13.046;2023-04-03T18:28:30;9.80;51.20
30467;DHT22;17258;52.560;13.046;2023-04-03T18:38:31;9.70;51.70
30467;DHT22;17258;52.560;13.046;2023-04-03T18:48:33;9.70;51.40
30467;DHT22;17258;52.560;13.046;2023-04-03T18:58:34;9.60;51.30
30467;DHT22;17258;52.560;13.046;2023-04-03T19:08:35;9.50;52.00
30467;DHT22;17258;52.560;13.046;2023-04-03T19:18:36;9.40;51.30
30467;DHT22;17258;52.560;13.046;2023-04-03T19:28:38;9.30;51.50
30467;DHT22;17258;52.560;13.046;2023-04-03T19:38:40;9.20;51.50
30467;DHT22;17258;52.560;13.046;2023-04-03T19:48:41;9.00;51.50
30467;DHT22;17258;52.560;13.046;2023-04-03T19:58:42;8.90;51.70
30467;DHT22;17258;52.560;13.046;2023-04-03T20:08:43;8.80;51.70
30467;DHT22;17258;52.560;13.046;2023-04-03T20:18:44;8.60;51.80
30467;DHT22;17258;52.560;13.046;2023-04-03T20:28:45;8.50;52.00
30467;DHT22;17258;52.560;13.046;2023-04-03T20:38:46;8.40;52.10
30467;DHT22;17258;52.560;13.046;2023-04-03T20:48:47;8.40;52.10
30467;DHT22;17258;52.560;13.046;2023-04-03T20:58:47;8.30;52.20
30467;DHT22;17258;52.560;13.046;2023-04-03T21:19:46;8.10;52.30
30467;DHT22;17258;52.560;13.046;2023-04-03T21:29:48;8.10;52.30
30467;DHT22;17258;52.560;13.046;2023-04-03T21:39:48;8.00;52.30
30467;DHT22;17258;52.560;13.046;2023-04-03T21:49:49;7.90;52.40
30467;DHT22;17258;52.560;13.046;2023-04-03T21:59:49;7.80;52.40
30467;DHT22;17258;52.560;13.046;2023-04-03T22:09:50;7.70;52.40
30467;DHT22;17258;52.560;13.046;2023-04-03T22:19:51;7.50;52.40
30467;DHT22;17258;52.560;13.046;2023-04-03T22:29:51;7.40;52.40
30467;DHT22;17258;52.560;13.046;2023-04-03T22:39:52;7.20;52.50
30467;DHT22;17258;52.560;13.046;2023-04-03T22:49:53;7.10;52.50
30467;DHT22;17258;52.560;13.046;2023-04-03T22:59:54;6.90;52.60
30467;DHT22;17258;52.560;13.046;2023-04-03T23:09:55;6.70;52.70
30467;DHT22;17258;52.560;13.046;2023-04-03T23:19:57;6.60;52.70
30467;DHT22;17258;52.560;13.046;2023-04-03T23:29:58;6.50;52.80
30467;DHT22;17258;52.560;13.046;2023-04-03T23:39:58;6.40;52.80
30467;DHT22;17258;52.560;13.046;2023-04-03T23:50:01;6.30;52.90
